createdAt,value
2023-03-19T00:01:09.351Z,98140.91
2023-03-19T00:03:44.590Z,98136.20
2023-03-19T00:06:13.175Z,98135.17
2023-03-19T00:08:42.148Z,98140.90
2023-03-19T00:11:12.574Z,98135.27
2023-03-19T00:13:40.984Z,98136.04
2023-03-19T00:16:09.400Z,98137.81
2023-03-19T00:18:37.659Z,98134.14
2023-03-19T00:21:06.054Z,98135.69
2023-03-19T00:23:34.615Z,98132.52
2023-03-19T00:26:04.146Z,98131.91
2023-03-19T00:28:32.357Z,98130.66
2023-03-19T00:31:12.769Z,98130.64
2023-03-19T00:33:41.705Z,98130.84
2023-03-19T00:36:12.517Z,98130.48
2023-03-19T00:38:41.464Z,98131.83
2023-03-19T00:41:09.675Z,98133.60
2023-03-19T00:43:38.719Z,98128.20
2023-03-19T00:46:07.644Z,98127.67
2023-03-19T00:48:35.975Z,98123.23
2023-03-19T00:51:09.852Z,98121.64
2023-03-19T00:53:42.954Z,98124.23
2023-03-19T00:56:13.479Z,98124.77
2023-03-19T00:58:41.866Z,98120.27
2023-03-19T01:01:12.969Z,98124.40
2023-03-19T01:03:41.575Z,98122.28
2023-03-19T01:06:10.054Z,98122.02
2023-03-19T01:08:38.175Z,98120.43
2023-03-19T01:11:10.252Z,98119.96
2023-03-19T01:13:38.692Z,98118.10
2023-03-19T01:16:07.404Z,98122.05
2023-03-19T01:18:35.845Z,98117.02
2023-03-19T01:21:04.493Z,98115.19
2023-03-19T01:23:33.970Z,98118.55
2023-03-19T01:26:03.922Z,98116.11
2023-03-19T01:28:32.575Z,98113.64
2023-03-19T01:31:05.789Z,98117.25
2023-03-19T01:34:12.604Z,98119.98
2023-03-19T01:36:47.324Z,98122.98
2023-03-19T01:39:18.942Z,98124.16
2023-03-19T01:41:48.261Z,98121.09
2023-03-19T01:44:49.385Z,98121.81
2023-03-19T01:47:43.203Z,98119.84
2023-03-19T01:50:38.021Z,98115.91
2023-03-19T01:53:37.881Z,98117.16
2023-03-19T01:56:32.916Z,98128.08
2023-03-19T01:59:23.219Z,98128.30
2023-03-19T02:02:35.071Z,98122.72
2023-03-19T02:05:17.869Z,98121.48
2023-03-19T02:07:46.592Z,98122.87
2023-03-19T02:10:17.306Z,98124.56
2023-03-19T02:12:46.751Z,98118.70
2023-03-19T02:15:15.952Z,98122.53
2023-03-19T02:17:45.110Z,98122.51
2023-03-19T02:21:01.203Z,98123.71
2023-03-19T02:24:27.690Z,98122.07
2023-03-19T02:27:08.231Z,98127.80
2023-03-19T02:29:38.517Z,98130.11
2023-03-19T02:32:06.843Z,98124.77
2023-03-19T02:34:40.032Z,98123.39
2023-03-19T02:37:13.793Z,98120.42
2023-03-19T02:40:00.525Z,98121.61
2023-03-19T02:42:30.738Z,98118.52
2023-03-19T02:44:58.767Z,98121.52
2023-03-19T02:47:28.004Z,98120.55
2023-03-19T02:49:56.617Z,98124.86
2023-03-19T02:52:24.697Z,98128.02
2023-03-19T02:54:53.236Z,98131.23
2023-03-19T02:57:21.392Z,98131.55
2023-03-19T02:59:49.858Z,98134.41
2023-03-19T03:02:18.142Z,98135.65
2023-03-19T03:04:48.209Z,98134.60
2023-03-19T03:07:17.394Z,98135.53
2023-03-19T03:09:45.508Z,98131.56
2023-03-19T03:12:14.062Z,98137.31
2023-03-19T03:14:43.795Z,98142.59
2023-03-19T03:17:11.774Z,98146.41
2023-03-19T03:19:40.201Z,98146.67
2023-03-19T03:22:09.176Z,98143.84
2023-03-19T03:24:37.603Z,98147.38
2023-03-19T03:27:05.792Z,98145.14
2023-03-19T03:29:33.808Z,98148.69
2023-03-19T03:32:01.850Z,98151.83
2023-03-19T03:34:30.583Z,98152.92
2023-03-19T03:36:58.586Z,98155.36
2023-03-19T03:39:26.676Z,98157.64
2023-03-19T03:41:57.567Z,98160.35
2023-03-19T03:44:26.394Z,98160.59
2023-03-19T03:46:54.613Z,98159.60
2023-03-19T03:49:24.232Z,98160.11
2023-03-19T03:51:52.701Z,98159.50
2023-03-19T03:54:21.490Z,98158.44
2023-03-19T03:56:50.689Z,98160.66
2023-03-19T03:59:18.845Z,98159.75
2023-03-19T04:01:46.901Z,98158.92
2023-03-19T04:04:15.717Z,98163.80
2023-03-19T04:06:43.961Z,98159.58
2023-03-19T04:09:14.786Z,98162.97
2023-03-19T04:11:43.025Z,98160.96
2023-03-19T04:14:11.277Z,98159.81
2023-03-19T04:16:40.239Z,98162.10
2023-03-19T04:19:08.382Z,98160.75
2023-03-19T04:21:36.628Z,98157.45
2023-03-19T04:24:05.013Z,98159.36
2023-03-19T04:26:33.544Z,98157.17
2023-03-19T04:29:01.708Z,98155.91
2023-03-19T04:31:30.138Z,98151.92
2023-03-19T04:33:58.557Z,98150.89
2023-03-19T04:36:27.058Z,98156.48
2023-03-19T04:38:55.128Z,98155.19
2023-03-19T04:41:23.661Z,98151.02
2023-03-19T04:44:20.098Z,98152.68
2023-03-19T04:46:48.122Z,98151.66
2023-03-19T04:49:18.227Z,98147.04
2023-03-19T04:51:46.680Z,98151.17
2023-03-19T04:54:14.831Z,98152.80
2023-03-19T04:56:42.894Z,98156.42
2023-03-19T04:59:12.646Z,98156.27
2023-03-19T05:01:40.786Z,98157.41
2023-03-19T05:04:12.409Z,98158.46
2023-03-19T05:06:43.794Z,98156.16
2023-03-19T05:09:13.147Z,98160.70
2023-03-19T05:11:42.240Z,98157.68
2023-03-19T05:14:16.991Z,98157.25
2023-03-19T05:17:07.811Z,98157.98
2023-03-19T05:20:02.747Z,98157.73
2023-03-19T05:22:32.973Z,98160.11
2023-03-19T05:25:02.499Z,98162.96
2023-03-19T05:27:31.037Z,98163.77
2023-03-19T05:30:23.745Z,98166.14
2023-03-19T05:33:12.835Z,98162.30
2023-03-19T05:35:43.229Z,98162.50
2023-03-19T05:38:18.502Z,98166.44
2023-03-19T05:40:50.989Z,98161.77
2023-03-19T05:43:26.425Z,98160.94
2023-03-19T05:45:54.670Z,98156.56
2023-03-19T05:48:26.658Z,98162.34
2023-03-19T05:50:55.414Z,98158.38
2023-03-19T05:53:24.061Z,98159.91
2023-03-19T05:56:17.967Z,98159.93
2023-03-19T05:58:57.232Z,98162.61
2023-03-19T06:01:28.769Z,98159.20
2023-03-19T06:03:57.455Z,98156.40
2023-03-19T06:06:25.827Z,98160.08
2023-03-19T06:08:54.410Z,98160.10
2023-03-19T06:11:29.306Z,98162.00
2023-03-19T06:14:14.426Z,98159.33
2023-03-19T06:16:43.922Z,98156.70
2023-03-19T06:19:12.391Z,98157.02
2023-03-19T06:21:42.564Z,98157.35
2023-03-19T06:24:10.608Z,98156.20
2023-03-19T06:26:39.458Z,98153.94
2023-03-19T06:29:12.746Z,98151.52
2023-03-19T06:31:42.030Z,98155.38
2023-03-19T06:34:21.531Z,98160.04
2023-03-19T06:36:53.977Z,98155.79
2023-03-19T06:39:22.578Z,98152.48
2023-03-19T06:41:51.477Z,98148.33
2023-03-19T06:44:21.836Z,98147.19
2023-03-19T06:46:49.862Z,98145.88
2023-03-19T06:49:18.145Z,98144.86
2023-03-19T06:51:46.813Z,98146.83
2023-03-19T06:54:15.529Z,98145.34
2023-03-19T06:56:43.528Z,98143.55
2023-03-19T06:59:17.731Z,98141.66
2023-03-19T07:01:46.990Z,98144.27
2023-03-19T07:04:16.478Z,98144.98
2023-03-19T07:06:44.636Z,98150.77
2023-03-19T07:09:13.267Z,98153.52
2023-03-19T07:11:41.451Z,98150.80
2023-03-19T07:14:09.909Z,98147.80
2023-03-19T07:16:38.096Z,98143.84
2023-03-19T07:19:06.298Z,98138.70
2023-03-19T07:21:34.380Z,98140.59
2023-03-19T07:24:02.463Z,98135.91
2023-03-19T07:26:30.754Z,98133.75
2023-03-19T07:28:59.037Z,98136.59
2023-03-19T07:31:27.088Z,98134.98
2023-03-19T07:33:55.133Z,98133.86
2023-03-19T07:36:23.500Z,98134.18
2023-03-19T07:38:51.612Z,98128.57
2023-03-19T07:41:20.972Z,98128.63
2023-03-19T07:43:49.739Z,98127.41
2023-03-19T07:46:18.730Z,98119.48
2023-03-19T07:48:46.960Z,98116.66
2023-03-19T07:51:15.435Z,98123.66
2023-03-19T07:53:44.403Z,98129.33
2023-03-19T07:56:14.347Z,98128.27
2023-03-19T07:58:42.405Z,98119.23
2023-03-19T08:01:10.738Z,98117.95
2023-03-19T08:03:39.640Z,98119.48
2023-03-19T08:06:08.166Z,98124.91
2023-03-19T08:08:36.928Z,98125.04
2023-03-19T08:11:05.101Z,98123.31
2023-03-19T08:13:33.369Z,98122.53
2023-03-19T08:16:01.708Z,98118.75
2023-03-19T08:18:32.494Z,98117.08
2023-03-19T08:21:00.836Z,98116.64
2023-03-19T08:23:29.164Z,98116.73
2023-03-19T08:25:57.213Z,98118.05
2023-03-19T08:28:25.520Z,98116.13
2023-03-19T08:30:56.272Z,98118.45
2023-03-19T08:33:25.017Z,98114.59
2023-03-19T08:35:53.557Z,98112.41
2023-03-19T08:38:21.823Z,98110.44
2023-03-19T08:40:50.003Z,98107.61
2023-03-19T08:43:18.000Z,98108.37
2023-03-19T08:45:48.103Z,98104.67
2023-03-19T08:48:16.130Z,98105.15
2023-03-19T08:50:44.716Z,98103.02
2023-03-19T08:53:12.772Z,98099.61
2023-03-19T08:55:41.017Z,98094.14
2023-03-19T08:58:09.307Z,98093.95
2023-03-19T09:00:37.437Z,98095.70
2023-03-19T09:03:06.964Z,98093.38
2023-03-19T09:05:36.039Z,98090.45
2023-03-19T09:08:06.442Z,98087.92
2023-03-19T09:10:35.319Z,98085.90
2023-03-19T09:13:03.623Z,98084.20
2023-03-19T09:15:33.501Z,98085.64
2023-03-19T09:18:01.832Z,98085.19
2023-03-19T09:20:30.790Z,98084.23
2023-03-19T09:22:58.872Z,98083.71
2023-03-19T09:25:28.986Z,98081.50
2023-03-19T09:27:57.032Z,98078.77
2023-03-19T09:30:25.196Z,98076.59
2023-03-19T09:32:54.408Z,98077.45
2023-03-19T09:35:23.177Z,98078.79
2023-03-19T09:37:52.828Z,98074.70
2023-03-19T09:40:26.544Z,98075.23
2023-03-19T09:43:03.375Z,98069.95
2023-03-19T09:45:37.218Z,98064.56
2023-03-19T09:48:15.056Z,98059.31
2023-03-19T09:50:43.733Z,98055.28
2023-03-19T09:53:38.936Z,98055.67
2023-03-19T09:56:11.548Z,98054.70
2023-03-19T09:58:39.690Z,98051.04
2023-03-19T10:01:30.592Z,98052.79
2023-03-19T10:04:29.704Z,98054.20
2023-03-19T10:07:23.231Z,98055.33
2023-03-19T10:10:17.069Z,98055.56
2023-03-19T10:13:20.872Z,98053.50
2023-03-19T10:15:52.972Z,98046.29
2023-03-19T10:18:39.175Z,98042.68
2023-03-19T10:21:20.833Z,98041.27
2023-03-19T10:23:53.583Z,98038.64
2023-03-19T10:26:28.299Z,98038.92
2023-03-19T10:29:15.863Z,98032.83
2023-03-19T10:31:52.720Z,98030.30
2023-03-19T10:34:37.976Z,98023.72
2023-03-19T10:37:28.822Z,98015.91
2023-03-19T10:39:59.509Z,98009.53
2023-03-19T10:42:55.375Z,98002.23
2023-03-19T10:45:29.639Z,97999.17
2023-03-19T10:47:59.753Z,97996.51
2023-03-19T10:50:49.014Z,97993.12
2023-03-19T10:53:25.400Z,97987.08
2023-03-19T10:55:56.710Z,97982.13
2023-03-19T10:58:29.535Z,97976.98
2023-03-19T11:01:09.983Z,97973.73
2023-03-19T11:03:41.107Z,97971.29
2023-03-19T11:06:27.881Z,97965.10
2023-03-19T11:08:59.797Z,97965.37
2023-03-19T11:11:54.905Z,97960.89
2023-03-19T11:14:35.509Z,97951.78
2023-03-19T11:17:26.728Z,97948.38
2023-03-19T11:19:59.671Z,97945.51
2023-03-19T11:22:34.524Z,97943.52
2023-03-19T11:25:04.071Z,97945.21
2023-03-19T11:27:35.754Z,97944.85
2023-03-19T11:30:15.479Z,97940.52
2023-03-19T11:33:15.970Z,97932.52
2023-03-19T11:36:02.944Z,97932.20
2023-03-19T11:38:54.647Z,97926.83
2023-03-19T11:41:36.840Z,97927.11
2023-03-19T11:44:26.723Z,97923.74
2023-03-19T11:47:02.274Z,97921.48
2023-03-19T11:49:30.690Z,97922.45
2023-03-19T11:52:16.905Z,97921.67
2023-03-19T11:54:57.260Z,97919.68
2023-03-19T11:57:46.430Z,97913.95
2023-03-19T12:00:46.715Z,97908.77
2023-03-19T12:03:30.956Z,97902.34
2023-03-19T12:06:06.231Z,97901.86
2023-03-19T12:08:53.708Z,97896.30
2023-03-19T12:11:28.624Z,97895.02
2023-03-19T12:14:03.562Z,97891.81
2023-03-19T12:16:45.843Z,97884.83
2023-03-19T12:19:49.427Z,97881.89
2023-03-19T12:22:24.722Z,97876.25
2023-03-19T12:25:03.555Z,97870.07
2023-03-19T12:27:45.041Z,97865.89
2023-03-19T12:30:33.243Z,97859.30
2023-03-19T12:33:27.145Z,97853.66
2023-03-19T12:35:59.174Z,97851.40
2023-03-19T12:38:58.279Z,97845.29
2023-03-19T12:41:31.548Z,97842.75
2023-03-19T12:44:11.720Z,97836.90
2023-03-19T12:46:44.519Z,97836.23
2023-03-19T12:49:25.830Z,97837.21
2023-03-19T12:52:06.328Z,97832.68
2023-03-19T12:54:41.803Z,97827.02
2023-03-19T12:57:28.133Z,97827.52
2023-03-19T13:00:06.736Z,97825.75
2023-03-19T13:02:47.691Z,97822.23
2023-03-19T13:05:41.952Z,97826.96
2023-03-19T13:08:38.258Z,97820.96
2023-03-19T13:11:16.070Z,97813.30
2023-03-19T13:14:06.233Z,97812.42
2023-03-19T13:16:51.334Z,97803.17
2023-03-19T13:19:35.826Z,97798.65
2023-03-19T13:22:11.206Z,97795.85
2023-03-19T13:24:43.398Z,97795.28
2023-03-19T13:27:36.177Z,97790.93
2023-03-19T13:30:13.410Z,97789.21
2023-03-19T13:32:49.019Z,97782.39
2023-03-19T13:35:25.079Z,97781.14
2023-03-19T13:38:16.405Z,97777.19
2023-03-19T13:40:44.439Z,97773.61
2023-03-19T13:43:37.500Z,97768.45
2023-03-19T13:46:17.535Z,97764.90
2023-03-19T13:48:45.996Z,97765.88
2023-03-19T13:51:20.684Z,97762.96
2023-03-19T13:54:03.921Z,97757.17
2023-03-19T13:56:33.353Z,97751.45
2023-03-19T13:59:25.268Z,97746.14
2023-03-19T14:01:54.421Z,97742.29
2023-03-19T14:04:37.293Z,97741.12
2023-03-19T14:07:28.929Z,97733.77
2023-03-19T14:10:00.316Z,97733.46
2023-03-19T14:12:42.915Z,97729.41
2023-03-19T14:15:11.465Z,97732.60
2023-03-19T14:18:07.750Z,97733.27
2023-03-19T14:21:12.474Z,97730.59
2023-03-19T14:23:52.709Z,97728.30
2023-03-19T14:26:24.633Z,97725.45
2023-03-19T14:29:06.139Z,97725.79
2023-03-19T14:31:46.033Z,97722.25
2023-03-19T14:34:20.885Z,97714.52
2023-03-19T14:36:58.273Z,97707.64
2023-03-19T14:39:41.072Z,97707.05
2023-03-19T14:42:26.992Z,97709.23
2023-03-19T14:45:20.189Z,97709.77
2023-03-19T14:48:17.612Z,97710.62
2023-03-19T14:50:55.214Z,97710.17
2023-03-19T14:53:34.888Z,97710.02
2023-03-19T14:56:14.108Z,97710.36
2023-03-19T14:58:55.673Z,97705.80
2023-03-19T15:01:29.305Z,97703.02
2023-03-19T15:04:03.744Z,97697.77
2023-03-19T15:06:36.599Z,97698.91
2023-03-19T15:09:18.497Z,97695.48
2023-03-19T15:12:17.726Z,97700.29
2023-03-19T15:14:48.971Z,97699.82
2023-03-19T15:17:30.049Z,97701.45
2023-03-19T15:20:02.523Z,97705.27
2023-03-19T15:22:34.571Z,97707.98
2023-03-19T15:25:15.678Z,97708.80
2023-03-19T15:27:43.985Z,97710.88
2023-03-19T15:30:32.913Z,97712.23
2023-03-19T15:33:13.985Z,97714.61
2023-03-19T15:35:49.134Z,97715.12
2023-03-19T15:38:18.918Z,97716.23
2023-03-19T15:40:48.518Z,97718.86
2023-03-19T15:43:17.035Z,97716.60
2023-03-19T15:45:51.202Z,97719.80
2023-03-19T15:48:36.522Z,97720.44
2023-03-19T15:51:06.683Z,97724.09
2023-03-19T15:53:36.632Z,97724.49
2023-03-19T15:56:05.497Z,97720.33
2023-03-19T15:58:43.250Z,97721.67
2023-03-19T16:01:13.137Z,97724.13
2023-03-19T16:04:16.310Z,97729.92
2023-03-19T16:06:49.597Z,97727.58
2023-03-19T16:09:30.968Z,97725.92
2023-03-19T16:12:00.299Z,97726.94
2023-03-19T16:14:43.722Z,97724.93
2023-03-19T16:17:14.733Z,97729.87
2023-03-19T16:19:56.507Z,97732.69
2023-03-19T16:22:31.588Z,97735.86
2023-03-19T16:25:03.145Z,97741.95
2023-03-19T16:27:31.327Z,97745.90
2023-03-19T16:30:00.487Z,97745.92
2023-03-19T16:32:32.723Z,97753.16
2023-03-19T16:35:14.749Z,97754.03
2023-03-19T16:37:49.616Z,97759.02
2023-03-19T16:40:17.820Z,97764.30
2023-03-19T16:43:08.417Z,97767.63
2023-03-19T16:45:36.809Z,97770.06
2023-03-19T16:48:05.577Z,97771.89
2023-03-19T16:50:39.042Z,97773.42
2023-03-19T16:53:22.486Z,97774.21
2023-03-19T16:55:53.210Z,97771.55
2023-03-19T16:58:26.285Z,97774.98
2023-03-19T17:00:54.908Z,97774.44
2023-03-19T17:03:23.262Z,97775.98
2023-03-19T17:05:51.444Z,97783.50
2023-03-19T17:08:23.225Z,97787.05
2023-03-19T17:10:53.530Z,97790.49
2023-03-19T17:13:28.357Z,97789.73
2023-03-19T17:16:02.488Z,97790.73
2023-03-19T17:18:35.245Z,97792.20
2023-03-19T17:21:03.363Z,97792.19
2023-03-19T17:23:32.590Z,97793.59
2023-03-19T17:26:03.144Z,97791.59
2023-03-19T17:28:32.594Z,97790.80
2023-03-19T17:31:00.879Z,97786.98
2023-03-19T17:33:30.399Z,97786.29
2023-03-19T17:35:59.518Z,97789.55
2023-03-19T17:38:34.565Z,97796.54
2023-03-19T17:41:13.237Z,97792.70
2023-03-19T17:43:41.466Z,97793.66
2023-03-19T17:46:18.108Z,97790.67
2023-03-19T17:48:48.511Z,97792.63
2023-03-19T17:51:18.067Z,97792.56
2023-03-19T17:53:49.969Z,97791.42
2023-03-19T17:56:21.156Z,97794.20
2023-03-19T17:58:50.700Z,97793.09
2023-03-19T18:01:26.118Z,97794.83
2023-03-19T18:03:56.413Z,97798.08
2023-03-19T18:06:29.409Z,97795.22
2023-03-19T18:08:57.447Z,97794.85
2023-03-19T18:11:27.708Z,97799.44
2023-03-19T18:13:56.370Z,97802.17
2023-03-19T18:16:28.355Z,97800.09
2023-03-19T18:19:01.620Z,97798.80
2023-03-19T18:21:31.278Z,97803.25
2023-03-19T18:23:59.829Z,97801.73
2023-03-19T18:26:27.888Z,97805.02
2023-03-19T18:28:55.968Z,97803.48
2023-03-19T18:31:25.722Z,97804.51
2023-03-19T18:34:01.269Z,97800.10
2023-03-19T18:36:31.453Z,97797.25
2023-03-19T18:39:00.056Z,97797.84
2023-03-19T18:41:29.755Z,97796.45
2023-03-19T18:44:09.293Z,97796.05
2023-03-19T18:46:39.957Z,97795.59
2023-03-19T18:49:26.709Z,97795.63
2023-03-19T18:52:02.768Z,97797.38
2023-03-19T18:54:32.266Z,97805.07
2023-03-19T18:57:01.423Z,97805.81
2023-03-19T18:59:32.875Z,97812.20
2023-03-19T19:02:13.929Z,97820.20
2023-03-19T19:04:41.982Z,97817.27
2023-03-19T19:07:15.068Z,97814.39
2023-03-19T19:09:43.824Z,97809.81
2023-03-19T19:12:18.396Z,97808.17
2023-03-19T19:14:47.012Z,97818.67
2023-03-19T19:17:24.411Z,97825.72
2023-03-19T19:19:52.489Z,97830.59
2023-03-19T19:22:20.774Z,97831.20
2023-03-19T19:24:48.924Z,97833.47
2023-03-19T19:27:26.839Z,97830.95
2023-03-19T19:29:57.459Z,97828.67
2023-03-19T19:32:28.723Z,97819.52
2023-03-19T19:34:58.654Z,97820.99
2023-03-19T19:37:26.822Z,97824.04
2023-03-19T19:39:56.586Z,97820.48
2023-03-19T19:42:25.464Z,97820.77
2023-03-19T19:44:58.982Z,97821.67
2023-03-19T19:47:27.874Z,97816.36
2023-03-19T19:49:56.656Z,97815.77
2023-03-19T19:52:24.884Z,97815.67
2023-03-19T19:54:53.035Z,97811.79
2023-03-19T19:57:24.795Z,97811.27
2023-03-19T19:59:54.732Z,97809.27
2023-03-19T20:02:31.377Z,97812.14
2023-03-19T20:04:59.925Z,97819.92
2023-03-19T20:07:28.210Z,97819.04
2023-03-19T20:09:56.250Z,97820.30
2023-03-19T20:12:29.644Z,97819.73
2023-03-19T20:14:57.951Z,97816.66
2023-03-19T20:17:27.329Z,97815.62
2023-03-19T20:19:57.438Z,97817.54
2023-03-19T20:22:25.761Z,97817.63
2023-03-19T20:24:56.457Z,97820.45
2023-03-19T20:27:32.723Z,97818.31
2023-03-19T20:30:04.524Z,97823.08
2023-03-19T20:32:36.355Z,97823.56
2023-03-19T20:35:14.554Z,97820.75
2023-03-19T20:37:42.841Z,97826.17
2023-03-19T20:40:13.240Z,97829.76
2023-03-19T20:42:43.422Z,97833.30
2023-03-19T20:45:22.950Z,97832.10
2023-03-19T20:47:52.973Z,97833.18
2023-03-19T20:50:28.177Z,97831.13
2023-03-19T20:53:01.208Z,97833.09
2023-03-19T20:55:35.334Z,97831.54
2023-03-19T20:58:14.371Z,97832.13
2023-03-19T21:00:42.681Z,97833.23
2023-03-19T21:03:17.444Z,97828.77
2023-03-19T21:05:46.409Z,97825.09
2023-03-19T21:08:20.613Z,97826.24
2023-03-19T21:10:49.841Z,97826.32
2023-03-19T21:13:19.468Z,97826.07
2023-03-19T21:15:49.878Z,97821.78
2023-03-19T21:18:18.132Z,97825.88
2023-03-19T21:20:56.965Z,97824.75
2023-03-19T21:23:27.730Z,97826.11
2023-03-19T21:25:56.195Z,97822.27
2023-03-19T21:28:35.990Z,97820.64
2023-03-19T21:31:05.437Z,97818.92
2023-03-19T21:33:35.568Z,97821.85
2023-03-19T21:36:04.376Z,97820.73
2023-03-19T21:38:36.212Z,97822.86
2023-03-19T21:41:10.663Z,97822.05
2023-03-19T21:43:49.474Z,97826.66
2023-03-19T21:46:24.433Z,97829.30
2023-03-19T21:48:54.514Z,97829.87
2023-03-19T21:51:25.156Z,97828.29
2023-03-19T21:53:53.317Z,97828.02
2023-03-19T21:56:46.014Z,97828.02
2023-03-19T21:59:18.544Z,97825.43
2023-03-19T22:01:46.884Z,97828.46
2023-03-19T22:04:14.882Z,97824.91
2023-03-19T22:06:43.328Z,97823.63
2023-03-19T22:09:11.600Z,97823.52
2023-03-19T22:11:41.937Z,97824.84
2023-03-19T22:14:16.032Z,97829.27
2023-03-19T22:16:45.702Z,97826.20
2023-03-19T22:19:19.351Z,97822.03
2023-03-19T22:21:48.335Z,97824.55
2023-03-19T22:24:16.463Z,97823.17
2023-03-19T22:26:47.196Z,97820.61
2023-03-19T22:29:25.547Z,97819.65
2023-03-19T22:31:55.833Z,97819.98
2023-03-19T22:34:27.659Z,97819.82
2023-03-19T22:36:57.244Z,97822.44
2023-03-19T22:39:25.290Z,97823.52
2023-03-19T22:41:53.452Z,97826.70
2023-03-19T22:44:30.872Z,97821.96
2023-03-19T22:47:01.134Z,97821.94
2023-03-19T22:49:30.193Z,97823.71
2023-03-19T22:51:58.664Z,97824.36
2023-03-19T22:54:27.367Z,97818.23
2023-03-19T22:56:55.688Z,97821.26
2023-03-19T22:59:23.669Z,97817.34
2023-03-19T23:01:51.733Z,97816.02
2023-03-19T23:04:27.638Z,97809.96
2023-03-19T23:06:56.823Z,97811.70
2023-03-19T23:09:30.805Z,97813.46
2023-03-19T23:12:00.100Z,97813.48
2023-03-19T23:14:30.837Z,97815.15
2023-03-19T23:17:19.791Z,97815.17
2023-03-19T23:19:49.922Z,97816.19
2023-03-19T23:22:17.900Z,97815.35
2023-03-19T23:24:46.895Z,97816.73
2023-03-19T23:27:34.548Z,97815.42
2023-03-19T23:30:02.899Z,97815.75
2023-03-19T23:32:31.205Z,97815.02
2023-03-19T23:35:01.618Z,97810.71
2023-03-19T23:37:30.272Z,97811.45
2023-03-19T23:39:58.500Z,97809.48
2023-03-19T23:42:30.527Z,97812.50
2023-03-19T23:45:03.442Z,97813.77
2023-03-19T23:47:32.403Z,97811.69
2023-03-19T23:50:00.535Z,97808.34
2023-03-19T23:52:29.309Z,97809.44
2023-03-19T23:54:57.620Z,97811.09
2023-03-19T23:57:27.394Z,97811.51
2023-03-19T23:59:55.832Z,97810.08
